Terminal Aerodrome Forecast
Issued by NWS Charleston, WV

Current Version | Previous Version | Text Only | Print | Product List | Glossary Off
Versions: 1 2 3 4 5 6 7 8 9 10 11 12 13 14 15 16 17 18 19 20 21 22 23 24 25

000
FTUS41 KRLX 300000 AAA
TAFPKB
TAF AMD
KPKB 300018Z 3000/3024 28012G20KT P6SM -SHRA OVC015
     FM300200 26007KT P6SM -SHRA OVC015
     FM300300 27007KT P6SM -SHRASN OVC015
     FM300500 28007KT P6SM -SHSN OVC010
     FM300900 29008G13KT P6SM OVC015
     FM301300 30008G14KT P6SM OVC025=

USA.gov is the U.S. government's official web portal to all federal, state and local government web resources and services.